sensor_id;sensor_type;location;lat;lon;timestamp;P1;durP1;ratioP1;P2;durP2;ratioP2
6640;SDS011;3356;49.360;8.266;2022-08-01T00:00:18;2.57;;;2.40;;
6640;SDS011;3356;49.360;8.266;2022-08-01T00:02:19;3.20;;;2.10;;
6640;SDS011;3356;49.360;8.266;2022-08-01T00:04:20;2.00;;;1.90;;
6640;SDS011;3356;49.360;8.266;2022-08-01T00:06:21;2.60;;;2.10;;
6640;SDS011;3356;49.360;8.266;2022-08-01T00:08:22;2.53;;;2.33;;
6640;SDS011;3356;49.360;8.266;2022-08-01T00:10:23;2.50;;;2.30;;
6640;SDS011;3356;49.360;8.266;2022-08-01T00:12:24;4.97;;;2.40;;
6640;SDS011;3356;49.360;8.266;2022-08-01T00:14:26;3.20;;;2.30;;
6640;SDS011;3356;49.360;8.266;2022-08-01T00:16:27;3.93;;;2.10;;
6640;SDS011;3356;49.360;8.266;2022-08-01T00:18:28;2.93;;;2.17;;
6640;SDS011;3356;49.360;8.266;2022-08-01T00:20:29;3.47;;;2.30;;
6640;SDS011;3356;49.360;8.266;2022-08-01T00:22:31;2.37;;;2.20;;
6640;SDS011;3356;49.360;8.266;2022-08-01T00:24:33;3.60;;;2.80;;
6640;SDS011;3356;49.360;8.266;2022-08-01T00:26:34;4.40;;;2.67;;
6640;SDS011;3356;49.360;8.266;2022-08-01T00:28:35;3.87;;;2.40;;
6640;SDS011;3356;49.360;8.266;2022-08-01T00:30:36;2.83;;;2.50;;
6640;SDS011;3356;49.360;8.266;2022-08-01T00:32:37;2.60;;;2.40;;
6640;SDS011;3356;49.360;8.266;2022-08-01T00:34:38;2.30;;;2.10;;
6640;SDS011;3356;49.360;8.266;2022-08-01T00:36:39;2.77;;;2.57;;
6640;SDS011;3356;49.360;8.266;2022-08-01T00:38:41;2.20;;;2.10;;
6640;SDS011;3356;49.360;8.266;2022-08-01T00:40:42;3.17;;;2.53;;
6640;SDS011;3356;49.360;8.266;2022-08-01T00:42:43;2.03;;;1.93;;
6640;SDS011;3356;49.360;8.266;2022-08-01T00:44:44;2.27;;;2.07;;
6640;SDS011;3356;49.360;8.266;2022-08-01T00:46:45;2.20;;;2.07;;
6640;SDS011;3356;49.360;8.266;2022-08-01T00:48:46;3.20;;;2.37;;
6640;SDS011;3356;49.360;8.266;2022-08-01T00:50:48;2.80;;;1.47;;
6640;SDS011;3356;49.360;8.266;2022-08-01T00:52:49;2.20;;;2.00;;
6640;SDS011;3356;49.360;8.266;2022-08-01T00:54:51;2.40;;;1.60;;
6640;SDS011;3356;49.360;8.266;2022-08-01T00:56:53;2.03;;;1.93;;
6640;SDS011;3356;49.360;8.266;2022-08-01T00:58:55;3.07;;;2.77;;
6640;SDS011;3356;49.360;8.266;2022-08-01T01:00:56;2.47;;;2.10;;
6640;SDS011;3356;49.360;8.266;2022-08-01T01:02:57;2.07;;;1.87;;
6640;SDS011;3356;49.360;8.266;2022-08-01T01:04:58;2.10;;;2.00;;
6640;SDS011;3356;49.360;8.266;2022-08-01T01:07:03;2.13;;;1.90;;
6640;SDS011;3356;49.360;8.266;2022-08-01T01:09:17;2.13;;;1.93;;
6640;SDS011;3356;49.360;8.266;2022-08-01T01:11:28;2.50;;;2.20;;
6640;SDS011;3356;49.360;8.266;2022-08-01T01:13:35;3.10;;;2.10;;
6640;SDS011;3356;49.360;8.266;2022-08-01T01:15:54;2.70;;;2.30;;
6640;SDS011;3356;49.360;8.266;2022-08-01T01:18:03;2.30;;;2.10;;
6640;SDS011;3356;49.360;8.266;2022-08-01T01:20:12;2.67;;;2.00;;
6640;SDS011;3356;49.360;8.266;2022-08-01T01:24:31;3.10;;;2.17;;
6640;SDS011;3356;49.360;8.266;2022-08-01T01:31:19;3.07;;;2.47;;
6640;SDS011;3356;49.360;8.266;2022-08-01T01:33:21;2.17;;;2.00;;
6640;SDS011;3356;49.360;8.266;2022-08-01T01:35:27;2.27;;;2.00;;
6640;SDS011;3356;49.360;8.266;2022-08-01T01:37:31;2.43;;;2.13;;
6640;SDS011;3356;49.360;8.266;2022-08-01T01:39:34;2.20;;;2.00;;
6640;SDS011;3356;49.360;8.266;2022-08-01T01:41:37;2.90;;;1.80;;
6640;SDS011;3356;49.360;8.266;2022-08-01T01:43:40;3.80;;;1.90;;
6640;SDS011;3356;49.360;8.266;2022-08-01T01:45:43;3.77;;;2.03;;
6640;SDS011;3356;49.360;8.266;2022-08-01T01:47:46;3.23;;;1.67;;
6640;SDS011;3356;49.360;8.266;2022-08-01T01:49:48;2.10;;;2.00;;
6640;SDS011;3356;49.360;8.266;2022-08-01T01:51:51;2.53;;;2.10;;
6640;SDS011;3356;49.360;8.266;2022-08-01T01:53:55;3.73;;;2.50;;
6640;SDS011;3356;49.360;8.266;2022-08-01T01:55:57;2.40;;;2.20;;
6640;SDS011;3356;49.360;8.266;2022-08-01T01:58:01;2.23;;;1.67;;
6640;SDS011;3356;49.360;8.266;2022-08-01T02:00:03;4.67;;;2.27;;
6640;SDS011;3356;49.360;8.266;2022-08-01T02:02:07;2.40;;;2.20;;
6640;SDS011;3356;49.360;8.266;2022-08-01T02:04:10;2.30;;;1.63;;
6640;SDS011;3356;49.360;8.266;2022-08-01T02:06:13;2.30;;;2.20;;
6640;SDS011;3356;49.360;8.266;2022-08-01T02:08:16;3.07;;;2.17;;
6640;SDS011;3356;49.360;8.266;2022-08-01T02:10:18;2.33;;;2.10;;
6640;SDS011;3356;49.360;8.266;2022-08-01T02:12:20;3.07;;;2.07;;
6640;SDS011;3356;49.360;8.266;2022-08-01T02:14:22;4.27;;;2.50;;
6640;SDS011;3356;49.360;8.266;2022-08-01T02:16:28;3.60;;;1.70;;
6640;SDS011;3356;49.360;8.266;2022-08-01T02:18:32;4.23;;;2.60;;
6640;SDS011;3356;49.360;8.266;2022-08-01T02:20:34;1.93;;;1.80;;
6640;SDS011;3356;49.360;8.266;2022-08-01T02:22:39;1.70;;;1.60;;
6640;SDS011;3356;49.360;8.266;2022-08-01T02:26:50;2.40;;;1.90;;
6640;SDS011;3356;49.360;8.266;2022-08-01T02:28:59;4.17;;;2.00;;
6640;SDS011;3356;49.360;8.266;2022-08-01T02:31:06;1.87;;;1.77;;
6640;SDS011;3356;49.360;8.266;2022-08-01T02:33:14;1.70;;;1.60;;
6640;SDS011;3356;49.360;8.266;2022-08-01T02:35:22;2.73;;;1.97;;
6640;SDS011;3356;49.360;8.266;2022-08-01T02:37:27;1.60;;;1.50;;
6640;SDS011;3356;49.360;8.266;2022-08-01T02:39:32;2.23;;;1.67;;
6640;SDS011;3356;49.360;8.266;2022-08-01T02:41:38;2.70;;;1.77;;
6640;SDS011;3356;49.360;8.266;2022-08-01T02:43:43;1.67;;;1.57;;
6640;SDS011;3356;49.360;8.266;2022-08-01T02:45:52;1.63;;;1.53;;
6640;SDS011;3356;49.360;8.266;2022-08-01T02:48:00;3.17;;;1.50;;
6640;SDS011;3356;49.360;8.266;2022-08-01T02:50:06;1.53;;;1.43;;
6640;SDS011;3356;49.360;8.266;2022-08-01T02:52:09;1.93;;;1.43;;
6640;SDS011;3356;49.360;8.266;2022-08-01T02:54:12;3.33;;;1.53;;
6640;SDS011;3356;49.360;8.266;2022-08-01T02:56:17;2.03;;;1.50;;
6640;SDS011;3356;49.360;8.266;2022-08-01T02:58:21;1.50;;;1.40;;
6640;SDS011;3356;49.360;8.266;2022-08-01T03:00:24;3.47;;;1.60;;
6640;SDS011;3356;49.360;8.266;2022-08-01T03:02:26;1.93;;;1.40;;
6640;SDS011;3356;49.360;8.266;2022-08-01T03:04:29;1.60;;;1.50;;
6640;SDS011;3356;49.360;8.266;2022-08-01T03:06:32;4.70;;;1.90;;
6640;SDS011;3356;49.360;8.266;2022-08-01T03:08:35;1.37;;;1.27;;
6640;SDS011;3356;49.360;8.266;2022-08-01T03:10:38;1.47;;;1.20;;
6640;SDS011;3356;49.360;8.266;2022-08-01T03:12:41;2.60;;;1.30;;
6640;SDS011;3356;49.360;8.266;2022-08-01T03:14:44;1.67;;;1.57;;
6640;SDS011;3356;49.360;8.266;2022-08-01T03:16:48;1.37;;;1.30;;
6640;SDS011;3356;49.360;8.266;2022-08-01T03:18:53;1.50;;;1.40;;
6640;SDS011;3356;49.360;8.266;2022-08-01T03:20:55;2.50;;;1.60;;
6640;SDS011;3356;49.360;8.266;2022-08-01T03:23:00;2.27;;;1.80;;
6640;SDS011;3356;49.360;8.266;2022-08-01T03:25:04;2.13;;;1.50;;
6640;SDS011;3356;49.360;8.266;2022-08-01T03:27:06;4.00;;;1.40;;
6640;SDS011;3356;49.360;8.266;2022-08-01T03:29:13;2.30;;;1.43;;
6640;SDS011;3356;49.360;8.266;2022-08-01T03:31:17;1.30;;;1.20;;
6640;SDS011;3356;49.360;8.266;2022-08-01T03:33:19;6.37;;;1.40;;
6640;SDS011;3356;49.360;8.266;2022-08-01T03:35:20;1.80;;;1.60;;
6640;SDS011;3356;49.360;8.266;2022-08-01T03:37:24;2.40;;;1.33;;
6640;SDS011;3356;49.360;8.266;2022-08-01T03:39:40;2.47;;;1.30;;
6640;SDS011;3356;49.360;8.266;2022-08-01T03:41:50;3.77;;;1.40;;
6640;SDS011;3356;49.360;8.266;2022-08-01T03:43:56;1.43;;;1.30;;
6640;SDS011;3356;49.360;8.266;2022-08-01T03:46:01;1.90;;;1.80;;
6640;SDS011;3356;49.360;8.266;2022-08-01T03:48:15;1.73;;;1.47;;
6640;SDS011;3356;49.360;8.266;2022-08-01T03:50:19;2.20;;;1.53;;
6640;SDS011;3356;49.360;8.266;2022-08-01T03:52:22;1.43;;;1.33;;
6640;SDS011;3356;49.360;8.266;2022-08-01T03:54:28;2.10;;;1.20;;
6640;SDS011;3356;49.360;8.266;2022-08-01T03:56:34;1.23;;;1.23;;
6640;SDS011;3356;49.360;8.266;2022-08-01T03:58:38;2.13;;;1.37;;
6640;SDS011;3356;49.360;8.266;2022-08-01T04:00:40;3.47;;;1.50;;
6640;SDS011;3356;49.360;8.266;2022-08-01T04:02:42;1.80;;;1.30;;
6640;SDS011;3356;49.360;8.266;2022-08-01T04:04:43;2.47;;;1.73;;
6640;SDS011;3356;49.360;8.266;2022-08-01T04:06:45;1.80;;;1.70;;
6640;SDS011;3356;49.360;8.266;2022-08-01T04:08:48;1.63;;;1.53;;
6640;SDS011;3356;49.360;8.266;2022-08-01T04:10:55;2.43;;;2.20;;
6640;SDS011;3356;49.360;8.266;2022-08-01T04:12:58;2.30;;;1.97;;
6640;SDS011;3356;49.360;8.266;2022-08-01T04:15:00;2.57;;;1.83;;
6640;SDS011;3356;49.360;8.266;2022-08-01T04:17:01;2.13;;;1.93;;
6640;SDS011;3356;49.360;8.266;2022-08-01T04:19:02;2.07;;;1.97;;
6640;SDS011;3356;49.360;8.266;2022-08-01T04:21:04;1.90;;;1.80;;
6640;SDS011;3356;49.360;8.266;2022-08-01T04:23:05;2.23;;;1.70;;
6640;SDS011;3356;49.360;8.266;2022-08-01T04:25:10;6.93;;;1.80;;
6640;SDS011;3356;49.360;8.266;2022-08-01T04:27:23;2.63;;;2.03;;
6640;SDS011;3356;49.360;8.266;2022-08-01T04:29:31;2.00;;;1.90;;
6640;SDS011;3356;49.360;8.266;2022-08-01T04:31:34;2.30;;;2.10;;
6640;SDS011;3356;49.360;8.266;2022-08-01T04:33:40;3.03;;;2.20;;
6640;SDS011;3356;49.360;8.266;2022-08-01T04:35:46;2.30;;;2.07;;
6640;SDS011;3356;49.360;8.266;2022-08-01T04:37:49;2.40;;;2.20;;
6640;SDS011;3356;49.360;8.266;2022-08-01T04:39:52;8.77;;;2.33;;
6640;SDS011;3356;49.360;8.266;2022-08-01T04:41:54;2.10;;;1.90;;
6640;SDS011;3356;49.360;8.266;2022-08-01T04:43:59;4.53;;;1.90;;
6640;SDS011;3356;49.360;8.266;2022-08-01T04:46:01;2.13;;;1.93;;
6640;SDS011;3356;49.360;8.266;2022-08-01T04:48:04;4.43;;;2.10;;
6640;SDS011;3356;49.360;8.266;2022-08-01T04:50:09;2.43;;;2.23;;
6640;SDS011;3356;49.360;8.266;2022-08-01T04:52:11;1.90;;;1.80;;
6640;SDS011;3356;49.360;8.266;2022-08-01T04:54:12;3.50;;;2.23;;
6640;SDS011;3356;49.360;8.266;2022-08-01T04:56:14;2.53;;;1.87;;
6640;SDS011;3356;49.360;8.266;2022-08-01T04:58:15;2.50;;;1.93;;
6640;SDS011;3356;49.360;8.266;2022-08-01T05:00:16;1.90;;;1.80;;
6640;SDS011;3356;49.360;8.266;2022-08-01T05:02:18;2.50;;;2.30;;
6640;SDS011;3356;49.360;8.266;2022-08-01T05:04:19;2.97;;;2.33;;
6640;SDS011;3356;49.360;8.266;2022-08-01T05:06:20;3.47;;;2.10;;
6640;SDS011;3356;49.360;8.266;2022-08-01T05:08:21;4.20;;;2.40;;
6640;SDS011;3356;49.360;8.266;2022-08-01T05:10:22;4.20;;;2.20;;
6640;SDS011;3356;49.360;8.266;2022-08-01T05:12:23;2.57;;;2.00;;
6640;SDS011;3356;49.360;8.266;2022-08-01T05:14:25;3.70;;;1.90;;
6640;SDS011;3356;49.360;8.266;2022-08-01T05:16:26;2.67;;;2.37;;
6640;SDS011;3356;49.360;8.266;2022-08-01T05:18:27;5.30;;;2.60;;
6640;SDS011;3356;49.360;8.266;2022-08-01T05:20:28;2.87;;;1.90;;
6640;SDS011;3356;49.360;8.266;2022-08-01T05:22:29;2.13;;;1.93;;
6640;SDS011;3356;49.360;8.266;2022-08-01T05:24:31;2.10;;;1.93;;
6640;SDS011;3356;49.360;8.266;2022-08-01T05:26:33;2.10;;;1.90;;
6640;SDS011;3356;49.360;8.266;2022-08-01T05:28:34;2.00;;;1.90;;
6640;SDS011;3356;49.360;8.266;2022-08-01T05:30:35;1.70;;;1.60;;
6640;SDS011;3356;49.360;8.266;2022-08-01T05:32:36;3.10;;;2.00;;
6640;SDS011;3356;49.360;8.266;2022-08-01T05:34:37;2.73;;;1.77;;
6640;SDS011;3356;49.360;8.266;2022-08-01T05:36:38;2.07;;;1.40;;
6640;SDS011;3356;49.360;8.266;2022-08-01T05:38:40;1.77;;;1.53;;
6640;SDS011;3356;49.360;8.266;2022-08-01T05:40:41;2.40;;;1.67;;
6640;SDS011;3356;49.360;8.266;2022-08-01T05:42:42;2.03;;;1.40;;
6640;SDS011;3356;49.360;8.266;2022-08-01T05:44:43;4.57;;;2.00;;
6640;SDS011;3356;49.360;8.266;2022-08-01T05:46:44;1.40;;;1.30;;
6640;SDS011;3356;49.360;8.266;2022-08-01T05:48:46;2.30;;;1.60;;
6640;SDS011;3356;49.360;8.266;2022-08-01T05:50:47;1.40;;;1.30;;
6640;SDS011;3356;49.360;8.266;2022-08-01T05:52:49;1.63;;;0.90;;
6640;SDS011;3356;49.360;8.266;2022-08-01T05:54:50;1.57;;;1.47;;
6640;SDS011;3356;49.360;8.266;2022-08-01T05:56:51;1.43;;;1.33;;
6640;SDS011;3356;49.360;8.266;2022-08-01T05:58:52;6.73;;;1.10;;
6640;SDS011;3356;49.360;8.266;2022-08-01T06:00:53;1.37;;;1.10;;
6640;SDS011;3356;49.360;8.266;2022-08-01T06:02:54;1.47;;;1.00;;
6640;SDS011;3356;49.360;8.266;2022-08-01T06:04:55;3.70;;;0.90;;
6640;SDS011;3356;49.360;8.266;2022-08-01T06:06:56;3.13;;;0.90;;
6640;SDS011;3356;49.360;8.266;2022-08-01T06:08:58;1.57;;;0.67;;
6640;SDS011;3356;49.360;8.266;2022-08-01T06:10:59;3.17;;;0.90;;
6640;SDS011;3356;49.360;8.266;2022-08-01T06:13:00;0.97;;;0.90;;
6640;SDS011;3356;49.360;8.266;2022-08-01T06:15:03;1.53;;;1.00;;
6640;SDS011;3356;49.360;8.266;2022-08-01T06:17:06;1.90;;;0.90;;
6640;SDS011;3356;49.360;8.266;2022-08-01T06:19:07;0.83;;;0.83;;
6640;SDS011;3356;49.360;8.266;2022-08-01T06:21:08;2.43;;;1.00;;
6640;SDS011;3356;49.360;8.266;2022-08-01T06:23:09;5.23;;;1.10;;
6640;SDS011;3356;49.360;8.266;2022-08-01T06:25:10;1.83;;;0.80;;
6640;SDS011;3356;49.360;8.266;2022-08-01T06:27:11;1.33;;;0.70;;
6640;SDS011;3356;49.360;8.266;2022-08-01T06:29:13;7.77;;;1.00;;
6640;SDS011;3356;49.360;8.266;2022-08-01T06:31:14;0.70;;;0.70;;
6640;SDS011;3356;49.360;8.266;2022-08-01T06:33:16;1.70;;;0.70;;
6640;SDS011;3356;49.360;8.266;2022-08-01T06:35:17;1.57;;;0.90;;
6640;SDS011;3356;49.360;8.266;2022-08-01T06:37:18;0.90;;;0.63;;
6640;SDS011;3356;49.360;8.266;2022-08-01T06:39:20;0.93;;;0.60;;
6640;SDS011;3356;49.360;8.266;2022-08-01T06:41:21;1.20;;;0.70;;
6640;SDS011;3356;49.360;8.266;2022-08-01T06:43:22;1.00;;;0.97;;
6640;SDS011;3356;49.360;8.266;2022-08-01T06:45:23;0.67;;;0.67;;
6640;SDS011;3356;49.360;8.266;2022-08-01T06:47:27;0.70;;;0.70;;
6640;SDS011;3356;49.360;8.266;2022-08-01T06:49:31;4.67;;;0.80;;
6640;SDS011;3356;49.360;8.266;2022-08-01T06:51:32;0.90;;;0.90;;
6640;SDS011;3356;49.360;8.266;2022-08-01T06:53:37;2.90;;;0.90;;
6640;SDS011;3356;49.360;8.266;2022-08-01T06:55:38;1.13;;;0.83;;
6640;SDS011;3356;49.360;8.266;2022-08-01T06:57:49;0.87;;;0.70;;
6640;SDS011;3356;49.360;8.266;2022-08-01T06:59:52;0.90;;;0.90;;
6640;SDS011;3356;49.360;8.266;2022-08-01T07:01:54;0.97;;;0.90;;
6640;SDS011;3356;49.360;8.266;2022-08-01T07:03:55;0.90;;;0.90;;
6640;SDS011;3356;49.360;8.266;2022-08-01T07:05:56;2.43;;;0.73;;
6640;SDS011;3356;49.360;8.266;2022-08-01T07:07:57;1.17;;;0.90;;
6640;SDS011;3356;49.360;8.266;2022-08-01T07:09:59;1.33;;;1.07;;
6640;SDS011;3356;49.360;8.266;2022-08-01T07:12:00;0.77;;;0.77;;
6640;SDS011;3356;49.360;8.266;2022-08-01T07:14:01;0.80;;;0.80;;
6640;SDS011;3356;49.360;8.266;2022-08-01T07:16:03;4.93;;;0.90;;
6640;SDS011;3356;49.360;8.266;2022-08-01T07:18:04;3.50;;;0.83;;
6640;SDS011;3356;49.360;8.266;2022-08-01T07:20:10;2.47;;;0.90;;
6640;SDS011;3356;49.360;8.266;2022-08-01T07:22:12;0.70;;;0.63;;
6640;SDS011;3356;49.360;8.266;2022-08-01T07:24:15;1.20;;;0.90;;
6640;SDS011;3356;49.360;8.266;2022-08-01T07:26:16;0.83;;;0.67;;
6640;SDS011;3356;49.360;8.266;2022-08-01T07:28:18;0.97;;;0.90;;
6640;SDS011;3356;49.360;8.266;2022-08-01T07:30:19;2.63;;;0.80;;
6640;SDS011;3356;49.360;8.266;2022-08-01T07:32:20;1.17;;;0.90;;
6640;SDS011;3356;49.360;8.266;2022-08-01T07:34:22;1.10;;;0.80;;
6640;SDS011;3356;49.360;8.266;2022-08-01T07:36:23;1.17;;;0.60;;
6640;SDS011;3356;49.360;8.266;2022-08-01T07:38:24;1.30;;;0.75;;
6640;SDS011;3356;49.360;8.266;2022-08-01T07:40:26;1.05;;;0.77;;
6640;SDS011;3356;49.360;8.266;2022-08-01T07:42:27;1.65;;;1.10;;
6640;SDS011;3356;49.360;8.266;2022-08-01T07:44:28;0.75;;;0.75;;
6640;SDS011;3356;49.360;8.266;2022-08-01T07:46:29;0.60;;;0.60;;
6640;SDS011;3356;49.360;8.266;2022-08-01T07:48:31;0.52;;;0.50;;
6640;SDS011;3356;49.360;8.266;2022-08-01T07:50:33;0.70;;;0.70;;
6640;SDS011;3356;49.360;8.266;2022-08-01T07:52:34;1.15;;;0.60;;
6640;SDS011;3356;49.360;8.266;2022-08-01T07:54:35;2.13;;;0.63;;
6640;SDS011;3356;49.360;8.266;2022-08-01T07:56:37;2.22;;;0.85;;
6640;SDS011;3356;49.360;8.266;2022-08-01T07:58:38;0.60;;;0.60;;
6640;SDS011;3356;49.360;8.266;2022-08-01T08:00:39;0.93;;;0.65;;
6640;SDS011;3356;49.360;8.266;2022-08-01T08:02:40;0.52;;;0.52;;
6640;SDS011;3356;49.360;8.266;2022-08-01T08:04:42;0.68;;;0.68;;
6640;SDS011;3356;49.360;8.266;2022-08-01T08:06:43;0.75;;;0.75;;
6640;SDS011;3356;49.360;8.266;2022-08-01T08:08:45;1.00;;;0.70;;
6640;SDS011;3356;49.360;8.266;2022-08-01T08:10:46;2.10;;;0.80;;
6640;SDS011;3356;49.360;8.266;2022-08-01T08:12:47;1.00;;;0.75;;
6640;SDS011;3356;49.360;8.266;2022-08-01T08:14:48;2.50;;;0.70;;
6640;SDS011;3356;49.360;8.266;2022-08-01T08:16:50;0.50;;;0.50;;
6640;SDS011;3356;49.360;8.266;2022-08-01T08:18:52;0.75;;;0.60;;
6640;SDS011;3356;49.360;8.266;2022-08-01T08:20:53;1.65;;;0.90;;
6640;SDS011;3356;49.360;8.266;2022-08-01T08:22:54;1.05;;;0.50;;
6640;SDS011;3356;49.360;8.266;2022-08-01T08:24:57;0.52;;;0.50;;
6640;SDS011;3356;49.360;8.266;2022-08-01T08:26:58;1.05;;;0.50;;
6640;SDS011;3356;49.360;8.266;2022-08-01T08:29:00;0.82;;;0.73;;
6640;SDS011;3356;49.360;8.266;2022-08-01T08:31:01;0.70;;;0.70;;
6640;SDS011;3356;49.360;8.266;2022-08-01T08:33:03;0.70;;;0.70;;
6640;SDS011;3356;49.360;8.266;2022-08-01T08:35:04;0.65;;;0.65;;
6640;SDS011;3356;49.360;8.266;2022-08-01T08:37:06;1.65;;;0.80;;
6640;SDS011;3356;49.360;8.266;2022-08-01T08:39:07;1.65;;;0.70;;
6640;SDS011;3356;49.360;8.266;2022-08-01T08:41:09;0.95;;;0.77;;
6640;SDS011;3356;49.360;8.266;2022-08-01T08:43:10;1.60;;;0.73;;
6640;SDS011;3356;49.360;8.266;2022-08-01T08:45:12;2.00;;;0.70;;
6640;SDS011;3356;49.360;8.266;2022-08-01T08:47:13;0.85;;;0.82;;
6640;SDS011;3356;49.360;8.266;2022-08-01T08:49:16;1.05;;;0.68;;
6640;SDS011;3356;49.360;8.266;2022-08-01T08:51:20;1.63;;;0.82;;
6640;SDS011;3356;49.360;8.266;2022-08-01T08:53:24;1.15;;;0.93;;
6640;SDS011;3356;49.360;8.266;2022-08-01T08:55:26;1.25;;;0.93;;
6640;SDS011;3356;49.360;8.266;2022-08-01T08:57:28;2.50;;;0.68;;
6640;SDS011;3356;49.360;8.266;2022-08-01T08:59:30;1.52;;;1.13;;
6640;SDS011;3356;49.360;8.266;2022-08-01T09:01:32;1.83;;;0.77;;
6640;SDS011;3356;49.360;8.266;2022-08-01T09:03:35;1.30;;;0.77;;
6640;SDS011;3356;49.360;8.266;2022-08-01T09:05:37;2.83;;;0.82;;
6640;SDS011;3356;49.360;8.266;2022-08-01T09:07:38;0.73;;;0.73;;
6640;SDS011;3356;49.360;8.266;2022-08-01T09:09:40;1.42;;;0.90;;
6640;SDS011;3356;49.360;8.266;2022-08-01T09:11:41;3.33;;;0.90;;
6640;SDS011;3356;49.360;8.266;2022-08-01T09:13:48;3.03;;;0.90;;
6640;SDS011;3356;49.360;8.266;2022-08-01T09:16:15;2.35;;;0.80;;
6640;SDS011;3356;49.360;8.266;2022-08-01T09:18:34;2.47;;;1.08;;
6640;SDS011;3356;49.360;8.266;2022-08-01T09:20:39;3.65;;;0.90;;
6640;SDS011;3356;49.360;8.266;2022-08-01T09:22:40;0.88;;;0.88;;
6640;SDS011;3356;49.360;8.266;2022-08-01T09:24:41;1.50;;;0.77;;
6640;SDS011;3356;49.360;8.266;2022-08-01T09:26:42;1.48;;;1.10;;
6640;SDS011;3356;49.360;8.266;2022-08-01T09:28:45;1.95;;;0.98;;
6640;SDS011;3356;49.360;8.266;2022-08-01T09:30:48;0.80;;;0.80;;
6640;SDS011;3356;49.360;8.266;2022-08-01T09:32:53;2.75;;;0.77;;
6640;SDS011;3356;49.360;8.266;2022-08-01T09:34:55;1.98;;;0.70;;
6640;SDS011;3356;49.360;8.266;2022-08-01T09:36:57;2.83;;;0.57;;
6640;SDS011;3356;49.360;8.266;2022-08-01T09:39:11;0.82;;;0.82;;
6640;SDS011;3356;49.360;8.266;2022-08-01T09:41:14;4.35;;;0.90;;
6640;SDS011;3356;49.360;8.266;2022-08-01T09:43:15;2.20;;;0.88;;
6640;SDS011;3356;49.360;8.266;2022-08-01T09:45:32;3.42;;;1.08;;
6640;SDS011;3356;49.360;8.266;2022-08-01T09:47:37;0.73;;;0.70;;
6640;SDS011;3356;49.360;8.266;2022-08-01T09:49:39;2.42;;;0.75;;
6640;SDS011;3356;49.360;8.266;2022-08-01T09:51:42;1.80;;;0.82;;
6640;SDS011;3356;49.360;8.266;2022-08-01T09:53:44;0.90;;;0.63;;
6640;SDS011;3356;49.360;8.266;2022-08-01T09:55:49;5.13;;;0.98;;
6640;SDS011;3356;49.360;8.266;2022-08-01T09:57:55;0.75;;;0.75;;
6640;SDS011;3356;49.360;8.266;2022-08-01T09:59:59;3.03;;;0.80;;
6640;SDS011;3356;49.360;8.266;2022-08-01T10:02:01;2.60;;;0.80;;
6640;SDS011;3356;49.360;8.266;2022-08-01T10:04:13;2.17;;;1.02;;
6640;SDS011;3356;49.360;8.266;2022-08-01T10:06:20;1.17;;;1.08;;
6640;SDS011;3356;49.360;8.266;2022-08-01T10:08:22;1.08;;;0.90;;
6640;SDS011;3356;49.360;8.266;2022-08-01T10:10:25;2.50;;;0.90;;
6640;SDS011;3356;49.360;8.266;2022-08-01T10:12:27;3.63;;;1.13;;
6640;SDS011;3356;49.360;8.266;2022-08-01T10:14:29;0.90;;;0.90;;
6640;SDS011;3356;49.360;8.266;2022-08-01T10:16:30;2.38;;;0.82;;
6640;SDS011;3356;49.360;8.266;2022-08-01T10:18:34;1.02;;;0.80;;
6640;SDS011;3356;49.360;8.266;2022-08-01T10:20:36;2.35;;;0.90;;
6640;SDS011;3356;49.360;8.266;2022-08-01T10:22:38;3.00;;;0.70;;
6640;SDS011;3356;49.360;8.266;2022-08-01T10:24:39;1.05;;;1.00;;
6640;SDS011;3356;49.360;8.266;2022-08-01T10:26:41;1.02;;;0.95;;
6640;SDS011;3356;49.360;8.266;2022-08-01T10:28:46;2.15;;;0.90;;
6640;SDS011;3356;49.360;8.266;2022-08-01T10:30:49;0.60;;;0.60;;
6640;SDS011;3356;49.360;8.266;2022-08-01T10:32:51;1.80;;;0.70;;
6640;SDS011;3356;49.360;8.266;2022-08-01T10:34:55;4.18;;;1.08;;
6640;SDS011;3356;49.360;8.266;2022-08-01T10:36:57;1.08;;;0.98;;
6640;SDS011;3356;49.360;8.266;2022-08-01T10:38:59;1.05;;;0.82;;
6640;SDS011;3356;49.360;8.266;2022-08-01T10:41:02;2.10;;;0.70;;
6640;SDS011;3356;49.360;8.266;2022-08-01T10:43:04;1.25;;;1.00;;
6640;SDS011;3356;49.360;8.266;2022-08-01T10:45:06;5.70;;;1.10;;
6640;SDS011;3356;49.360;8.266;2022-08-01T10:47:12;2.80;;;1.00;;
6640;SDS011;3356;49.360;8.266;2022-08-01T10:49:15;1.88;;;0.95;;
6640;SDS011;3356;49.360;8.266;2022-08-01T10:51:20;1.92;;;0.90;;
6640;SDS011;3356;49.360;8.266;2022-08-01T10:53:23;3.53;;;1.10;;
6640;SDS011;3356;49.360;8.266;2022-08-01T10:55:26;0.70;;;0.70;;
6640;SDS011;3356;49.360;8.266;2022-08-01T10:57:40;1.15;;;0.80;;
6640;SDS011;3356;49.360;8.266;2022-08-01T10:59:49;1.88;;;0.80;;
6640;SDS011;3356;49.360;8.266;2022-08-01T11:06:01;1.77;;;0.60;;
6640;SDS011;3356;49.360;8.266;2022-08-01T11:08:12;2.15;;;0.93;;
6640;SDS011;3356;49.360;8.266;2022-08-01T11:10:31;1.35;;;0.80;;
6640;SDS011;3356;49.360;8.266;2022-08-01T11:12:39;0.77;;;0.77;;
6640;SDS011;3356;49.360;8.266;2022-08-01T11:22:25;2.22;;;0.60;;
6640;SDS011;3356;49.360;8.266;2022-08-01T11:27:15;3.22;;;0.98;;
6640;SDS011;3356;49.360;8.266;2022-08-01T11:29:17;1.67;;;1.00;;
6640;SDS011;3356;49.360;8.266;2022-08-01T11:38:22;0.90;;;0.90;;
6640;SDS011;3356;49.360;8.266;2022-08-01T11:40:28;2.80;;;1.00;;
6640;SDS011;3356;49.360;8.266;2022-08-01T11:42:30;2.45;;;1.33;;
6640;SDS011;3356;49.360;8.266;2022-08-01T11:44:31;0.80;;;0.80;;
6640;SDS011;3356;49.360;8.266;2022-08-01T11:46:58;1.60;;;1.00;;
6640;SDS011;3356;49.360;8.266;2022-08-01T11:51:26;0.82;;;0.80;;
6640;SDS011;3356;49.360;8.266;2022-08-01T11:53:28;1.27;;;0.90;;
6640;SDS011;3356;49.360;8.266;2022-08-01T11:55:30;4.80;;;1.00;;
6640;SDS011;3356;49.360;8.266;2022-08-01T11:57:32;0.98;;;0.98;;
6640;SDS011;3356;49.360;8.266;2022-08-01T11:59:42;3.80;;;1.17;;
6640;SDS011;3356;49.360;8.266;2022-08-01T12:01:46;1.65;;;1.15;;
6640;SDS011;3356;49.360;8.266;2022-08-01T12:03:54;1.45;;;0.93;;
6640;SDS011;3356;49.360;8.266;2022-08-01T12:05:56;2.70;;;1.25;;
6640;SDS011;3356;49.360;8.266;2022-08-01T12:07:57;1.52;;;0.82;;
6640;SDS011;3356;49.360;8.266;2022-08-01T12:10:01;3.15;;;0.85;;
6640;SDS011;3356;49.360;8.266;2022-08-01T12:12:02;2.13;;;0.98;;
6640;SDS011;3356;49.360;8.266;2022-08-01T12:14:03;1.42;;;1.10;;
6640;SDS011;3356;49.360;8.266;2022-08-01T12:16:07;1.60;;;0.95;;
6640;SDS011;3356;49.360;8.266;2022-08-01T12:18:10;2.05;;;0.90;;
6640;SDS011;3356;49.360;8.266;2022-08-01T12:20:15;3.00;;;1.10;;
6640;SDS011;3356;49.360;8.266;2022-08-01T12:22:21;1.58;;;1.00;;
6640;SDS011;3356;49.360;8.266;2022-08-01T12:24:24;2.92;;;0.95;;
6640;SDS011;3356;49.360;8.266;2022-08-01T12:26:46;2.42;;;1.10;;
6640;SDS011;3356;49.360;8.266;2022-08-01T12:28:46;1.40;;;1.10;;
6640;SDS011;3356;49.360;8.266;2022-08-01T12:30:48;1.02;;;1.02;;
6640;SDS011;3356;49.360;8.266;2022-08-01T12:32:50;2.72;;;0.90;;
6640;SDS011;3356;49.360;8.266;2022-08-01T12:34:53;2.58;;;1.10;;
6640;SDS011;3356;49.360;8.266;2022-08-01T12:36:56;2.53;;;1.13;;
6640;SDS011;3356;49.360;8.266;2022-08-01T12:38:58;1.02;;;0.95;;
6640;SDS011;3356;49.360;8.266;2022-08-01T12:41:03;1.08;;;1.05;;
6640;SDS011;3356;49.360;8.266;2022-08-01T12:43:06;2.55;;;0.95;;
6640;SDS011;3356;49.360;8.266;2022-08-01T12:45:09;7.90;;;1.00;;
6640;SDS011;3356;49.360;8.266;2022-08-01T12:47:13;2.55;;;0.95;;
6640;SDS011;3356;49.360;8.266;2022-08-01T12:49:15;2.75;;;1.00;;
6640;SDS011;3356;49.360;8.266;2022-08-01T12:51:16;0.98;;;0.90;;
6640;SDS011;3356;49.360;8.266;2022-08-01T12:53:17;1.75;;;0.90;;
6640;SDS011;3356;49.360;8.266;2022-08-01T12:55:20;0.90;;;0.90;;
6640;SDS011;3356;49.360;8.266;2022-08-01T12:57:22;1.10;;;1.00;;
6640;SDS011;3356;49.360;8.266;2022-08-01T12:59:26;2.83;;;0.90;;
6640;SDS011;3356;49.360;8.266;2022-08-01T13:01:29;1.40;;;1.20;;
6640;SDS011;3356;49.360;8.266;2022-08-01T13:03:30;2.53;;;1.10;;
6640;SDS011;3356;49.360;8.266;2022-08-01T13:05:41;1.15;;;1.05;;
6640;SDS011;3356;49.360;8.266;2022-08-01T13:07:48;2.65;;;1.17;;
6640;SDS011;3356;49.360;8.266;2022-08-01T13:09:50;1.10;;;0.80;;
6640;SDS011;3356;49.360;8.266;2022-08-01T13:11:52;0.90;;;0.90;;
6640;SDS011;3356;49.360;8.266;2022-08-01T13:13:56;1.48;;;1.10;;
6640;SDS011;3356;49.360;8.266;2022-08-01T13:16:04;4.00;;;1.23;;
6640;SDS011;3356;49.360;8.266;2022-08-01T13:20:31;1.00;;;0.90;;